createdAt,value
2016-12-08T00:00:46.918Z,0
2016-12-08T00:01:46.905Z,0
2016-12-08T00:02:46.895Z,0
2016-12-08T00:03:46.880Z,0
2016-12-08T00:04:46.897Z,0
2016-12-08T00:05:46.848Z,0
2016-12-08T00:06:46.840Z,0
2016-12-08T00:07:46.827Z,0
2016-12-08T00:08:46.918Z,0
2016-12-08T00:09:46.814Z,0
2016-12-08T00:10:46.777Z,0
2016-12-08T00:11:46.766Z,0
2016-12-08T00:12:46.760Z,0
2016-12-08T00:13:46.753Z,0
2016-12-08T00:14:47.242Z,0
2016-12-08T00:15:46.862Z,0
2016-12-08T00:16:46.693Z,0
2016-12-08T00:17:47.348Z,0
2016-12-08T00:18:46.743Z,0
2016-12-08T00:19:46.663Z,0
2016-12-08T00:20:46.719Z,0
2016-12-08T00:21:46.625Z,0
2016-12-08T00:22:46.938Z,0
2016-12-08T00:23:46.638Z,0
2016-12-08T00:24:47.371Z,0
2016-12-08T00:25:46.572Z,0
2016-12-08T00:26:46.549Z,0
2016-12-08T00:27:46.536Z,0
2016-12-08T00:28:46.523Z,0
2016-12-08T00:29:47.081Z,0
2016-12-08T00:30:46.499Z,0
2016-12-08T00:31:47.145Z,0
2016-12-08T00:32:46.467Z,0
2016-12-08T00:33:46.457Z,0
2016-12-08T00:34:46.438Z,0
2016-12-08T00:35:46.428Z,0
2016-12-08T00:36:46.412Z,0
2016-12-08T00:37:47.204Z,0
2016-12-08T00:38:46.709Z,0
2016-12-08T00:39:46.641Z,0
2016-12-08T00:40:46.352Z,0
2016-12-08T00:41:46.336Z,0
2016-12-08T00:42:46.321Z,0
2016-12-08T00:43:46.385Z,0
2016-12-08T00:44:46.626Z,0
2016-12-08T00:45:46.322Z,0
2016-12-08T00:46:46.265Z,0
2016-12-08T00:47:46.253Z,0
2016-12-08T00:48:46.237Z,0
2016-12-08T00:49:46.226Z,0
2016-12-08T00:50:46.213Z,0
2016-12-08T00:51:46.197Z,0
2016-12-08T00:52:46.630Z,0
2016-12-08T00:53:46.267Z,0
2016-12-08T00:54:46.290Z,0
2016-12-08T00:55:46.141Z,0
2016-12-08T00:56:46.125Z,0
2016-12-08T00:57:46.112Z,0
2016-12-08T00:58:46.098Z,0
2016-12-08T00:59:46.142Z,0
2016-12-08T01:00:46.072Z,0
2016-12-08T01:01:46.056Z,0
2016-12-08T01:02:46.364Z,0
2016-12-08T01:03:46.213Z,0
2016-12-08T01:04:46.222Z,0
2016-12-08T01:05:46.356Z,0
2016-12-08T01:06:46.218Z,0
2016-12-08T01:07:46.088Z,0
2016-12-08T01:08:46.267Z,0
2016-12-08T01:09:45.940Z,0
2016-12-08T01:10:45.926Z,0
2016-12-08T01:11:46.233Z,0
2016-12-08T01:12:45.899Z,0
2016-12-08T01:13:45.882Z,0
2016-12-08T01:14:45.877Z,0
2016-12-08T01:15:45.860Z,0
2016-12-08T01:16:45.839Z,0
2016-12-08T01:17:45.823Z,0
2016-12-08T01:18:45.809Z,0
2016-12-08T01:19:45.799Z,0
2016-12-08T01:20:45.780Z,0
2016-12-08T01:21:45.770Z,0
2016-12-08T01:22:45.757Z,0
2016-12-08T01:23:45.740Z,0
2016-12-08T01:24:45.731Z,0
2016-12-08T01:25:45.715Z,0
2016-12-08T01:26:45.701Z,0
2016-12-08T01:27:45.689Z,0
2016-12-08T01:28:45.668Z,0
2016-12-08T01:29:45.654Z,0
2016-12-08T01:30:45.639Z,0
2016-12-08T01:31:45.628Z,0
2016-12-08T01:32:45.613Z,0
2016-12-08T01:33:45.597Z,0
2016-12-08T01:34:45.586Z,0
2016-12-08T01:35:45.569Z,0
2016-12-08T01:36:45.555Z,0
2016-12-08T01:37:45.543Z,0
2016-12-08T01:38:45.524Z,0
2016-12-08T01:39:45.513Z,0
2016-12-08T01:40:45.493Z,0
2016-12-08T01:41:45.512Z,0
2016-12-08T01:42:45.467Z,0
2016-12-08T01:43:45.464Z,0
2016-12-08T01:44:45.440Z,0
2016-12-08T01:45:45.421Z,0
2016-12-08T01:46:45.410Z,0
2016-12-08T01:47:45.396Z,0
2016-12-08T01:48:45.382Z,0
2016-12-08T01:49:45.369Z,0
2016-12-08T01:50:45.352Z,0
2016-12-08T01:51:45.336Z,0
2016-12-08T01:52:45.327Z,0
2016-12-08T01:53:45.310Z,0
2016-12-08T01:54:45.292Z,0
2016-12-08T01:55:45.285Z,0
2016-12-08T01:56:45.268Z,0
2016-12-08T01:57:45.249Z,0
2016-12-08T01:58:45.237Z,0
2016-12-08T01:59:45.226Z,0
2016-12-08T02:00:45.207Z,0
2016-12-08T02:01:45.193Z,0
2016-12-08T02:02:45.187Z,0
2016-12-08T02:03:45.162Z,0
2016-12-08T02:04:45.157Z,0
2016-12-08T02:05:45.446Z,0
2016-12-08T02:06:45.116Z,0
2016-12-08T02:07:45.105Z,0
2016-12-08T02:08:45.089Z,0
2016-12-08T02:09:45.077Z,0
2016-12-08T02:10:45.060Z,0
2016-12-08T02:11:45.044Z,0
2016-12-08T02:12:45.033Z,0
2016-12-08T02:13:45.019Z,0
2016-12-08T02:14:45.001Z,0
2016-12-08T02:15:44.988Z,0
2016-12-08T02:16:44.975Z,0
2016-12-08T02:17:44.957Z,0
2016-12-08T02:18:44.943Z,0
2016-12-08T02:19:44.930Z,0
2016-12-08T02:20:44.910Z,0
2016-12-08T02:21:44.900Z,0
2016-12-08T02:22:44.883Z,0
2016-12-08T02:23:44.863Z,0
2016-12-08T02:24:44.853Z,0
2016-12-08T02:25:44.839Z,0
2016-12-08T02:26:44.848Z,0
2016-12-08T02:27:44.819Z,0
2016-12-08T02:28:44.798Z,0
2016-12-08T02:29:44.778Z,0
2016-12-08T02:30:44.769Z,0
2016-12-08T02:31:44.750Z,0
2016-12-08T02:32:44.738Z,0
2016-12-08T02:33:44.726Z,0
2016-12-08T02:34:44.708Z,0
2016-12-08T02:35:44.687Z,0
2016-12-08T02:36:44.678Z,0
2016-12-08T02:37:44.662Z,0
2016-12-08T02:38:44.646Z,0
2016-12-08T02:39:44.629Z,0
2016-12-08T02:40:44.620Z,0
2016-12-08T02:41:44.601Z,0
2016-12-08T02:42:44.594Z,0
2016-12-08T02:43:44.571Z,0
2016-12-08T02:44:44.559Z,0
2016-12-08T02:45:44.546Z,0
2016-12-08T02:46:44.526Z,0
2016-12-08T02:48:03.715Z,0
2016-12-08T02:48:44.498Z,0
2016-12-08T02:49:44.479Z,0
2016-12-08T02:50:44.463Z,0
2016-12-08T02:51:44.455Z,0
2016-12-08T02:52:44.441Z,0
2016-12-08T02:53:44.424Z,0
2016-12-08T02:54:44.411Z,0
2016-12-08T02:55:44.397Z,0
2016-12-08T02:56:44.375Z,0
2016-12-08T02:57:44.366Z,0
2016-12-08T02:58:44.345Z,0
2016-12-08T02:59:44.332Z,0
2016-12-08T03:00:44.319Z,0
2016-12-08T03:01:44.304Z,0
2016-12-08T03:02:44.290Z,0
2016-12-08T03:03:44.289Z,0
2016-12-08T03:04:44.262Z,0
2016-12-08T03:05:44.250Z,0
2016-12-08T03:06:44.230Z,0
2016-12-08T03:07:44.215Z,0
2016-12-08T03:08:44.201Z,0
2016-12-08T03:09:44.188Z,0
2016-12-08T03:10:44.178Z,0
2016-12-08T03:11:44.156Z,0
2016-12-08T03:12:44.166Z,0
2016-12-08T03:13:44.127Z,0
2016-12-08T03:14:44.109Z,0
2016-12-08T03:15:44.098Z,0
2016-12-08T03:16:44.082Z,0
2016-12-08T03:17:44.065Z,0
2016-12-08T03:18:44.377Z,0
2016-12-08T03:19:44.035Z,0
2016-12-08T03:20:44.024Z,0
2016-12-08T03:21:44.008Z,0
2016-12-08T03:22:44.018Z,0
2016-12-08T03:23:43.978Z,0
2016-12-08T03:24:43.967Z,0
2016-12-08T03:25:43.950Z,0
2016-12-08T03:26:43.941Z,0
2016-12-08T03:27:43.920Z,0
2016-12-08T03:28:43.909Z,0
2016-12-08T03:29:43.889Z,0
2016-12-08T03:30:43.878Z,0
2016-12-08T03:31:43.861Z,0
2016-12-08T03:32:43.845Z,0
2016-12-08T03:33:43.836Z,0
2016-12-08T03:34:43.823Z,0
2016-12-08T03:35:43.800Z,0
2016-12-08T03:36:43.783Z,0
2016-12-08T03:37:43.772Z,0
2016-12-08T03:38:43.783Z,0
2016-12-08T03:39:43.743Z,0
2016-12-08T03:40:44.049Z,0
2016-12-08T03:41:43.716Z,0
2016-12-08T03:42:43.701Z,0
2016-12-08T03:43:43.684Z,0
2016-12-08T03:44:43.667Z,0
2016-12-08T03:45:43.674Z,0
2016-12-08T03:46:43.641Z,0
2016-12-08T03:47:43.939Z,0
2016-12-08T03:48:43.618Z,0
2016-12-08T03:49:43.928Z,0
2016-12-08T03:50:43.579Z,0
2016-12-08T03:51:43.566Z,0
2016-12-08T03:52:43.546Z,0
2016-12-08T03:53:43.542Z,0
2016-12-08T03:54:43.517Z,0
2016-12-08T03:55:43.509Z,0
2016-12-08T03:56:43.492Z,0
2016-12-08T03:57:43.476Z,0
2016-12-08T03:58:43.462Z,0
2016-12-08T03:59:43.454Z,0
2016-12-08T04:00:43.438Z,0
2016-12-08T04:01:43.419Z,0
2016-12-08T04:02:43.408Z,0
2016-12-08T04:03:43.401Z,0
2016-12-08T04:04:43.379Z,0
2016-12-08T04:05:43.360Z,0
2016-12-08T04:06:43.356Z,0
2016-12-08T04:07:43.331Z,0
2016-12-08T04:08:43.340Z,0
2016-12-08T04:09:43.299Z,0
2016-12-08T04:10:43.289Z,0
2016-12-08T04:11:43.273Z,0
2016-12-08T04:12:43.262Z,0
2016-12-08T04:13:43.242Z,0
2016-12-08T04:14:43.230Z,0
2016-12-08T04:15:43.248Z,0
2016-12-08T04:16:43.202Z,0
2016-12-08T04:17:43.190Z,0
2016-12-08T04:18:43.175Z,0
2016-12-08T04:19:43.164Z,0
2016-12-08T04:20:43.459Z,0
2016-12-08T04:21:43.129Z,0
2016-12-08T04:22:43.118Z,0
2016-12-08T04:23:43.105Z,0
2016-12-08T04:24:43.084Z,0
2016-12-08T04:25:43.076Z,0
2016-12-08T04:26:43.058Z,0
2016-12-08T04:27:43.046Z,0
2016-12-08T04:28:43.029Z,0
2016-12-08T04:29:43.013Z,0
2016-12-08T04:30:43.002Z,0
2016-12-08T04:31:42.987Z,0
2016-12-08T04:32:42.968Z,0
2016-12-08T04:33:42.956Z,0
2016-12-08T04:34:42.939Z,0
2016-12-08T04:35:42.927Z,0
2016-12-08T04:36:42.915Z,0
2016-12-08T04:37:42.903Z,0
2016-12-08T04:38:42.883Z,0
2016-12-08T04:39:42.868Z,0
2016-12-08T04:40:42.857Z,0
2016-12-08T04:41:42.837Z,0
2016-12-08T04:42:42.826Z,0
2016-12-08T04:43:42.810Z,0
2016-12-08T04:44:42.798Z,0
2016-12-08T04:45:42.783Z,0
2016-12-08T04:46:42.769Z,0
2016-12-08T04:47:42.754Z,0
2016-12-08T04:48:42.739Z,0
2016-12-08T04:49:42.727Z,0
2016-12-08T04:50:42.710Z,0
2016-12-08T04:51:42.694Z,0
2016-12-08T04:52:42.691Z,0
2016-12-08T04:53:42.666Z,0
2016-12-08T04:54:42.660Z,0
2016-12-08T04:55:42.638Z,0
2016-12-08T04:56:42.632Z,0
2016-12-08T04:57:42.609Z,0
2016-12-08T04:58:42.594Z,0
2016-12-08T04:59:42.584Z,0
2016-12-08T05:00:42.568Z,0
2016-12-08T05:01:42.554Z,0
2016-12-08T05:02:42.537Z,0
2016-12-08T05:03:42.551Z,0
2016-12-08T05:04:42.508Z,0
2016-12-08T05:05:42.498Z,0
2016-12-08T05:06:42.484Z,0
2016-12-08T05:07:42.471Z,0
2016-12-08T05:08:42.454Z,0
2016-12-08T05:09:42.443Z,0
2016-12-08T05:10:42.425Z,0
2016-12-08T05:11:42.439Z,0
2016-12-08T05:12:42.403Z,0
2016-12-08T05:13:42.697Z,0
2016-12-08T05:14:42.369Z,0
2016-12-08T05:15:42.357Z,0
2016-12-08T05:16:42.371Z,0
2016-12-08T05:17:42.331Z,0
2016-12-08T05:18:42.348Z,0
2016-12-08T05:19:42.301Z,0
2016-12-08T05:20:42.283Z,0
2016-12-08T05:21:42.273Z,0
2016-12-08T05:22:42.256Z,0
2016-12-08T05:23:42.280Z,0
2016-12-08T05:24:42.232Z,0
2016-12-08T05:25:42.215Z,0
2016-12-08T05:26:42.200Z,0
2016-12-08T05:27:42.188Z,0
2016-12-08T05:28:42.175Z,0
2016-12-08T05:29:42.164Z,0
2016-12-08T05:30:42.145Z,0
2016-12-08T05:31:42.135Z,0
2016-12-08T05:32:42.118Z,0
2016-12-08T05:33:42.128Z,0
2016-12-08T05:34:42.090Z,0
2016-12-08T05:35:42.078Z,0
2016-12-08T05:36:42.069Z,0
2016-12-08T05:37:42.047Z,0
2016-12-08T05:38:42.037Z,0
2016-12-08T05:39:42.019Z,0
2016-12-08T05:40:42.009Z,0
2016-12-08T05:41:41.991Z,0
2016-12-08T05:42:41.979Z,0
2016-12-08T05:43:41.965Z,0
2016-12-08T05:44:41.951Z,0
2016-12-08T05:45:41.936Z,0
2016-12-08T05:46:41.920Z,0
2016-12-08T05:47:41.909Z,0
2016-12-08T05:48:41.893Z,0
2016-12-08T05:49:41.879Z,0
2016-12-08T05:50:41.868Z,0
2016-12-08T05:51:41.849Z,0
2016-12-08T05:52:41.836Z,0
2016-12-08T05:53:41.828Z,0
2016-12-08T05:54:41.811Z,0
2016-12-08T05:55:41.797Z,0
2016-12-08T05:56:41.783Z,0
2016-12-08T05:57:41.767Z,0
2016-12-08T05:58:41.755Z,0
2016-12-08T05:59:41.739Z,0
2016-12-08T06:00:41.729Z,0
2016-12-08T06:01:41.713Z,0
2016-12-08T06:02:41.695Z,0
2016-12-08T06:03:41.712Z,0
2016-12-08T06:04:41.674Z,0
2016-12-08T06:05:41.661Z,0
2016-12-08T06:06:41.643Z,0
2016-12-08T06:07:41.636Z,0
2016-12-08T06:08:41.617Z,0
2016-12-08T06:09:41.605Z,0
2016-12-08T06:10:41.591Z,0
2016-12-08T06:11:41.890Z,0
2016-12-08T06:12:41.567Z,0
2016-12-08T06:13:41.548Z,0
2016-12-08T06:14:41.535Z,0
2016-12-08T06:15:41.523Z,0
2016-12-08T06:16:41.507Z,0
2016-12-08T06:17:41.495Z,0
2016-12-08T06:18:41.477Z,0
2016-12-08T06:19:41.465Z,0
2016-12-08T06:20:41.454Z,0
2016-12-08T06:21:41.439Z,0
2016-12-08T06:22:41.425Z,0
2016-12-08T06:23:41.408Z,0
2016-12-08T06:24:41.398Z,0
2016-12-08T06:25:41.382Z,0
2016-12-08T06:26:41.396Z,4
2016-12-08T06:27:41.355Z,4
2016-12-08T06:28:41.346Z,4
2016-12-08T06:29:41.328Z,4
2016-12-08T06:30:41.313Z,4
2016-12-08T06:31:41.300Z,8
2016-12-08T06:32:41.284Z,4
2016-12-08T06:33:41.274Z,4
2016-12-08T06:34:41.257Z,8
2016-12-08T06:35:41.244Z,12
2016-12-08T06:36:41.233Z,12
2016-12-08T06:37:41.215Z,12
2016-12-08T06:38:41.211Z,16
2016-12-08T06:39:41.190Z,20
2016-12-08T06:40:41.175Z,20
2016-12-08T06:41:41.158Z,28
2016-12-08T06:42:41.148Z,32
2016-12-08T06:43:41.447Z,36
2016-12-08T06:44:41.120Z,40
2016-12-08T06:45:41.106Z,48
2016-12-08T06:46:41.094Z,56
2016-12-08T06:47:41.076Z,64
2016-12-08T06:48:41.066Z,68
2016-12-08T06:49:41.059Z,76
2016-12-08T06:50:41.035Z,84
2016-12-08T06:51:41.017Z,96
2016-12-08T06:52:41.007Z,104
2016-12-08T06:53:40.992Z,112
2016-12-08T06:54:40.975Z,120
2016-12-08T06:55:40.965Z,128
2016-12-08T06:56:40.951Z,132
2016-12-08T06:57:40.937Z,140
2016-12-08T06:58:40.924Z,148
2016-12-08T06:59:40.908Z,156
2016-12-08T07:00:40.897Z,164
2016-12-08T07:01:40.883Z,172
2016-12-08T07:02:40.864Z,188
2016-12-08T07:03:40.855Z,200
2016-12-08T07:04:40.837Z,212
2016-12-08T07:05:40.824Z,224
2016-12-08T07:06:40.815Z,240
2016-12-08T07:07:40.796Z,260
2016-12-08T07:08:40.814Z,276
2016-12-08T07:09:40.769Z,296
2016-12-08T07:10:40.760Z,312
2016-12-08T07:11:40.741Z,332
2016-12-08T07:12:40.728Z,352
2016-12-08T07:13:40.712Z,376
2016-12-08T07:14:41.030Z,396
2016-12-08T07:15:40.685Z,420
2016-12-08T07:16:40.669Z,444
2016-12-08T07:17:40.659Z,468
2016-12-08T07:18:40.653Z,488
2016-12-08T07:19:40.630Z,512
2016-12-08T07:20:40.624Z,540
2016-12-08T07:21:40.600Z,560
2016-12-08T07:22:40.591Z,588
2016-12-08T07:23:40.573Z,608
2016-12-08T07:24:40.563Z,636
2016-12-08T07:25:40.549Z,660
2016-12-08T07:26:40.855Z,692
2016-12-08T07:27:40.520Z,720
2016-12-08T07:28:40.508Z,748
2016-12-08T07:29:40.498Z,776
2016-12-08T07:30:40.478Z,800
2016-12-08T07:31:40.465Z,824
2016-12-08T07:32:40.451Z,848
2016-12-08T07:33:40.437Z,872
2016-12-08T07:34:40.422Z,892
2016-12-08T07:35:40.410Z,916
2016-12-08T07:36:40.397Z,940
2016-12-08T07:37:40.381Z,964
2016-12-08T07:38:40.371Z,984
2016-12-08T07:39:40.357Z,1008
2016-12-08T07:40:40.339Z,1024
2016-12-08T07:41:40.644Z,1036
2016-12-08T07:42:40.317Z,1052
2016-12-08T07:43:40.301Z,1064
2016-12-08T07:44:40.286Z,1084
2016-12-08T07:45:40.281Z,1108
2016-12-08T07:46:40.260Z,1128
2016-12-08T07:47:40.243Z,1144
2016-12-08T07:48:40.236Z,1164
2016-12-08T07:49:40.218Z,1188
2016-12-08T07:50:40.211Z,1212
2016-12-08T07:51:40.194Z,1240
2016-12-08T07:52:40.178Z,1268
2016-12-08T07:53:40.166Z,1304
2016-12-08T07:54:40.150Z,1348
2016-12-08T07:55:40.138Z,1388
2016-12-08T07:56:40.124Z,1408
2016-12-08T07:57:40.114Z,1420
2016-12-08T07:58:40.094Z,1424
2016-12-08T07:59:40.083Z,1428
2016-12-08T08:00:40.068Z,1444
2016-12-08T08:01:40.057Z,1452
2016-12-08T08:02:40.042Z,1468
2016-12-08T08:03:40.026Z,1472
2016-12-08T08:04:40.016Z,1488
2016-12-08T08:05:40.001Z,1512
2016-12-08T08:06:39.989Z,1536
2016-12-08T08:07:39.974Z,1564
2016-12-08T08:08:39.957Z,1584
2016-12-08T08:09:39.954Z,1604
2016-12-08T08:10:39.930Z,1624
2016-12-08T08:11:40.243Z,1648
2016-12-08T08:12:39.906Z,1680
2016-12-08T08:13:40.235Z,1712
2016-12-08T08:14:39.883Z,1744
2016-12-08T08:15:39.864Z,1784
2016-12-08T08:16:39.847Z,1820
2016-12-08T08:17:39.841Z,1856
2016-12-08T08:18:39.823Z,1880
2016-12-08T08:19:39.819Z,1904
2016-12-08T08:20:39.798Z,1932
2016-12-08T08:21:39.783Z,1964
2016-12-08T08:22:39.771Z,1992
2016-12-08T08:23:39.763Z,2036
2016-12-08T08:24:39.749Z,2096
2016-12-08T08:25:39.733Z,2164
2016-12-08T08:26:39.717Z,2244
2016-12-08T08:27:39.706Z,2324
2016-12-08T08:28:39.688Z,2416
2016-12-08T08:29:39.680Z,2528
2016-12-08T08:30:39.664Z,2652
2016-12-08T08:31:39.652Z,2788
2016-12-08T08:32:39.642Z,2932
2016-12-08T08:33:39.626Z,3072
2016-12-08T08:34:39.612Z,3188
2016-12-08T08:35:39.601Z,3292
2016-12-08T08:36:39.610Z,3372
2016-12-08T08:37:39.572Z,3444
2016-12-08T08:38:39.560Z,3496
2016-12-08T08:39:39.548Z,3516
2016-12-08T08:40:39.532Z,3544
2016-12-08T08:41:39.832Z,3576
2016-12-08T08:42:39.509Z,3612
2016-12-08T08:43:39.495Z,3640
2016-12-08T08:44:39.481Z,3660
2016-12-08T08:45:39.470Z,3676
2016-12-08T08:46:39.452Z,3672
2016-12-08T08:47:39.446Z,3672
2016-12-08T08:48:39.431Z,3680
2016-12-08T08:49:39.415Z,3700
2016-12-08T08:50:39.403Z,3692
2016-12-08T08:51:39.389Z,3700
2016-12-08T08:52:39.377Z,3712
2016-12-08T08:53:39.370Z,3720
2016-12-08T08:54:39.671Z,3704
2016-12-08T08:55:39.660Z,3692
2016-12-08T08:56:39.333Z,3652
2016-12-08T08:57:39.317Z,3608
2016-12-08T08:58:39.304Z,3568
2016-12-08T08:59:39.286Z,3488
2016-12-08T09:00:39.279Z,3400
2016-12-08T09:01:39.265Z,3312
2016-12-08T09:02:39.254Z,3232
2016-12-08T09:03:39.267Z,3132
2016-12-08T09:04:39.226Z,3052
2016-12-08T09:05:39.218Z,2984
2016-12-08T09:06:39.203Z,2944
2016-12-08T09:07:39.191Z,2904
2016-12-08T09:08:39.184Z,2872
2016-12-08T09:09:39.165Z,2820
2016-12-08T09:10:39.154Z,2768
2016-12-08T09:11:39.147Z,2700
2016-12-08T09:12:39.131Z,2632
2016-12-08T09:13:39.122Z,2588
2016-12-08T09:14:39.107Z,2516
2016-12-08T09:15:39.091Z,2436
2016-12-08T09:16:39.079Z,2352
2016-12-08T09:17:39.067Z,2268
2016-12-08T09:18:39.053Z,2180
2016-12-08T09:19:39.041Z,2112
2016-12-08T09:20:39.033Z,2072
2016-12-08T09:21:39.018Z,2024
2016-12-08T09:22:39.013Z,1972
2016-12-08T09:23:38.995Z,1924
2016-12-08T09:24:38.981Z,1888
2016-12-08T09:25:38.970Z,1840
2016-12-08T09:26:38.958Z,1804
2016-12-08T09:27:38.942Z,1784
2016-12-08T09:28:38.937Z,1772
2016-12-08T09:29:38.921Z,1768
2016-12-08T09:30:39.074Z,1768
2016-12-08T09:31:39.231Z,1748
2016-12-08T09:32:38.884Z,1732
2016-12-08T09:33:38.869Z,1724
2016-12-08T09:34:38.857Z,1712
2016-12-08T09:35:38.839Z,1716
2016-12-08T09:36:38.832Z,1712
2016-12-08T09:37:38.821Z,1716
2016-12-08T09:38:38.808Z,1708
2016-12-08T09:39:38.796Z,1720
2016-12-08T09:40:38.782Z,1720
2016-12-08T09:41:38.769Z,1720
2016-12-08T09:42:38.755Z,1716
2016-12-08T09:43:38.741Z,1704
2016-12-08T09:44:38.734Z,1724
2016-12-08T09:45:38.721Z,1732
2016-12-08T09:46:38.708Z,1740
2016-12-08T09:47:38.722Z,1756
2016-12-08T09:48:38.682Z,1768
2016-12-08T09:49:38.664Z,1768
2016-12-08T09:50:38.654Z,1768
2016-12-08T09:51:38.647Z,1800
2016-12-08T09:52:38.631Z,1832
2016-12-08T09:53:38.614Z,1868
2016-12-08T09:54:38.607Z,1892
2016-12-08T09:55:38.591Z,1916
2016-12-08T09:56:38.579Z,1936
2016-12-08T09:57:38.563Z,1956
2016-12-08T09:58:38.555Z,1972
2016-12-08T09:59:38.550Z,1972
2016-12-08T10:00:38.531Z,1996
2016-12-08T10:01:38.514Z,2040
2016-12-08T10:02:38.500Z,2068
2016-12-08T10:03:38.487Z,2100
2016-12-08T10:04:38.477Z,2128
2016-12-08T10:05:38.788Z,2164
2016-12-08T10:06:38.452Z,2188
2016-12-08T10:07:38.437Z,2212
2016-12-08T10:08:38.430Z,2240
2016-12-08T10:09:38.413Z,2264
2016-12-08T10:10:38.401Z,2284
2016-12-08T10:11:38.384Z,2308
2016-12-08T10:12:38.376Z,2316
2016-12-08T10:13:38.367Z,2344
2016-12-08T10:14:38.348Z,2372
2016-12-08T10:15:38.335Z,2404
2016-12-08T10:16:38.323Z,2436
2016-12-08T10:17:38.310Z,2452
2016-12-08T10:18:38.313Z,2484
2016-12-08T10:19:38.286Z,2516
2016-12-08T10:20:38.587Z,2540
2016-12-08T10:21:38.264Z,2568
2016-12-08T10:22:38.244Z,2584
2016-12-08T10:23:38.236Z,2608
2016-12-08T10:24:38.221Z,2612
2016-12-08T10:25:38.213Z,2616
2016-12-08T10:26:38.199Z,2652
2016-12-08T10:27:38.186Z,2664
2016-12-08T10:28:38.178Z,2680
2016-12-08T10:29:38.162Z,2684
2016-12-08T10:30:38.159Z,2680
2016-12-08T10:31:38.137Z,2668
2016-12-08T10:32:38.124Z,2660
2016-12-08T10:33:38.112Z,2672
2016-12-08T10:34:38.095Z,2692
2016-12-08T10:35:38.090Z,2696
2016-12-08T10:36:38.069Z,2704
2016-12-08T10:37:38.377Z,2708
2016-12-08T10:38:38.046Z,2708
2016-12-08T10:39:38.036Z,2724
2016-12-08T10:40:38.025Z,2732
2016-12-08T10:41:38.007Z,2732
2016-12-08T10:42:38.002Z,2732
2016-12-08T10:43:37.985Z,2736
2016-12-08T10:44:37.975Z,2736
2016-12-08T10:45:37.964Z,2744
2016-12-08T10:46:37.947Z,2736
2016-12-08T10:47:37.935Z,2740
2016-12-08T10:48:37.933Z,2720
2016-12-08T10:49:37.911Z,2712
2016-12-08T10:50:38.225Z,2720
2016-12-08T10:51:37.890Z,2724
2016-12-08T10:52:37.880Z,2716
2016-12-08T10:53:37.861Z,2724
2016-12-08T10:54:37.861Z,2720
2016-12-08T10:55:37.842Z,2712
2016-12-08T10:56:37.830Z,2700
2016-12-08T10:57:37.826Z,2680
2016-12-08T10:58:37.806Z,2668
2016-12-08T10:59:37.816Z,2676
2016-12-08T11:00:37.783Z,2680
2016-12-08T11:01:37.765Z,2688
2016-12-08T11:02:37.751Z,2696
2016-12-08T11:03:37.772Z,2696
2016-12-08T11:04:37.729Z,2696
2016-12-08T11:05:37.719Z,2700
2016-12-08T11:06:38.025Z,2676
2016-12-08T11:07:37.693Z,2676
2016-12-08T11:08:37.682Z,2692
2016-12-08T11:09:37.672Z,2696
2016-12-08T11:10:37.658Z,2676
2016-12-08T11:11:37.647Z,2664
2016-12-08T11:12:37.631Z,2668
2016-12-08T11:13:37.649Z,2652
2016-12-08T11:14:37.610Z,2652
2016-12-08T11:15:37.599Z,2636
2016-12-08T11:16:37.585Z,2628
2016-12-08T11:17:37.606Z,2612
2016-12-08T11:18:37.567Z,2604
2016-12-08T11:19:37.549Z,2600
2016-12-08T11:20:37.538Z,2596
2016-12-08T11:21:37.527Z,2624
2016-12-08T11:22:37.516Z,2636
2016-12-08T11:23:37.503Z,2664
2016-12-08T11:24:37.492Z,2692
2016-12-08T11:25:37.486Z,2692
2016-12-08T11:26:37.467Z,2700
2016-12-08T11:27:37.456Z,2736
2016-12-08T11:28:37.443Z,2760
2016-12-08T11:29:37.435Z,2764
2016-12-08T11:30:37.424Z,2772
2016-12-08T11:31:37.408Z,2764
2016-12-08T11:32:37.398Z,2760
2016-12-08T11:33:37.384Z,2760
2016-12-08T11:34:37.691Z,2768
2016-12-08T11:35:37.362Z,2808
2016-12-08T11:36:37.352Z,2812
2016-12-08T11:37:37.338Z,2804
2016-12-08T11:38:37.328Z,2792
2016-12-08T11:39:37.314Z,2792
2016-12-08T11:40:37.302Z,2792
2016-12-08T11:41:37.295Z,2788
2016-12-08T11:42:37.281Z,2780
2016-12-08T11:43:37.268Z,2760
2016-12-08T11:44:37.253Z,2744
2016-12-08T11:45:37.241Z,2720
2016-12-08T11:46:37.231Z,2700
2016-12-08T11:47:37.223Z,2688
2016-12-08T11:48:37.208Z,2664
2016-12-08T11:49:37.197Z,2664
2016-12-08T11:50:37.501Z,2644
2016-12-08T11:51:37.177Z,2652
2016-12-08T11:52:37.165Z,2656
2016-12-08T11:53:37.148Z,2652
2016-12-08T11:54:37.141Z,2652
2016-12-08T11:55:37.126Z,2608
2016-12-08T11:56:37.117Z,2612
2016-12-08T11:57:37.416Z,2624
2016-12-08T11:58:37.394Z,2624
2016-12-08T11:59:37.377Z,2616
2016-12-08T12:00:37.063Z,2592
2016-12-08T12:01:37.058Z,2576
2016-12-08T12:02:37.045Z,2568
2016-12-08T12:03:37.339Z,2572
2016-12-08T12:04:37.066Z,2568
2016-12-08T12:05:37.319Z,2568
2016-12-08T12:06:37.270Z,2564
2016-12-08T12:07:36.997Z,2572
2016-12-08T12:08:37.137Z,2588
2016-12-08T12:09:36.965Z,2604
2016-12-08T12:10:37.271Z,2612
2016-12-08T12:11:37.164Z,2616
2016-12-08T12:12:37.248Z,2608
2016-12-08T12:13:36.915Z,2604
2016-12-08T12:14:36.904Z,2612
2016-12-08T12:15:36.924Z,2624
2016-12-08T12:16:36.885Z,2616
2016-12-08T12:17:36.868Z,2624
2016-12-08T12:18:36.862Z,2636
2016-12-08T12:19:36.869Z,2644
2016-12-08T12:20:36.832Z,2652
2016-12-08T12:21:36.826Z,2648
2016-12-08T12:22:37.137Z,2652
2016-12-08T12:23:36.796Z,2664
2016-12-08T12:24:36.786Z,2676
2016-12-08T12:25:36.858Z,2680
2016-12-08T12:26:36.759Z,2680
2016-12-08T12:27:36.750Z,2676
2016-12-08T12:28:36.736Z,2684
2016-12-08T12:29:36.723Z,2700
2016-12-08T12:30:36.745Z,2716
2016-12-08T12:31:36.702Z,2736
2016-12-08T12:32:36.694Z,2724
2016-12-08T12:33:36.673Z,2720
2016-12-08T12:34:36.664Z,2728
2016-12-08T12:35:36.667Z,2732
2016-12-08T12:36:36.641Z,2728
2016-12-08T12:37:36.633Z,2716
2016-12-08T12:38:36.617Z,2704
2016-12-08T12:39:36.603Z,2680
2016-12-08T12:40:36.598Z,2676
2016-12-08T12:41:36.580Z,2668
2016-12-08T12:42:36.570Z,2648
2016-12-08T12:43:36.554Z,2632
2016-12-08T12:44:36.550Z,2608
2016-12-08T12:45:36.535Z,2588
2016-12-08T12:46:36.521Z,2560
2016-12-08T12:47:36.510Z,2548
2016-12-08T12:48:36.495Z,2532
2016-12-08T12:49:36.483Z,2528
2016-12-08T12:50:36.474Z,2520
2016-12-08T12:51:36.468Z,2512
2016-12-08T12:52:36.453Z,2500
2016-12-08T12:53:36.436Z,2500
2016-12-08T12:54:36.439Z,2496
2016-12-08T12:55:36.412Z,2492
2016-12-08T12:56:36.398Z,2456
2016-12-08T12:57:36.386Z,2464
2016-12-08T12:58:36.376Z,2460
2016-12-08T12:59:36.361Z,2456
2016-12-08T13:00:36.353Z,2448
2016-12-08T13:01:36.340Z,2452
2016-12-08T13:02:36.323Z,2448
2016-12-08T13:03:36.316Z,2440
2016-12-08T13:04:36.299Z,2404
2016-12-08T13:05:36.287Z,2380
2016-12-08T13:06:36.279Z,2412
2016-12-08T13:07:36.265Z,2400
2016-12-08T13:08:36.253Z,2416
2016-12-08T13:09:36.236Z,2420
2016-12-08T13:10:36.228Z,2420
2016-12-08T13:11:36.219Z,2416
2016-12-08T13:12:36.201Z,2420
2016-12-08T13:13:36.187Z,2420
2016-12-08T13:14:36.180Z,2432
2016-12-08T13:15:36.163Z,2476
2016-12-08T13:16:36.151Z,2492
2016-12-08T13:17:36.156Z,2480
2016-12-08T13:18:36.127Z,2480
2016-12-08T13:19:36.114Z,2476
2016-12-08T13:20:36.117Z,2484
2016-12-08T13:21:36.091Z,2480
2016-12-08T13:22:36.080Z,2468
2016-12-08T13:23:36.077Z,2456
2016-12-08T13:24:36.059Z,2440
2016-12-08T13:25:36.042Z,2424
2016-12-08T13:26:36.033Z,2400
2016-12-08T13:27:36.015Z,2360
2016-12-08T13:28:36.003Z,2308
2016-12-08T13:29:35.989Z,2280
2016-12-08T13:30:35.983Z,2244
2016-12-08T13:31:35.966Z,2184
2016-12-08T13:32:35.977Z,2132
2016-12-08T13:33:35.950Z,2120
2016-12-08T13:34:35.931Z,2156
2016-12-08T13:35:35.919Z,2148
2016-12-08T13:36:35.901Z,2136
2016-12-08T13:37:35.892Z,2136
2016-12-08T13:38:35.885Z,2120
2016-12-08T13:39:35.868Z,2100
2016-12-08T13:40:35.858Z,2068
2016-12-08T13:41:35.840Z,2048
2016-12-08T13:42:35.832Z,2020
2016-12-08T13:43:35.819Z,2000
2016-12-08T13:44:35.805Z,1996
2016-12-08T13:45:35.790Z,1980
2016-12-08T13:46:35.781Z,1956
2016-12-08T13:47:35.769Z,1916
2016-12-08T13:48:35.753Z,1888
2016-12-08T13:49:35.743Z,1920
2016-12-08T13:50:36.052Z,1940
2016-12-08T13:51:35.724Z,1932
2016-12-08T13:52:35.715Z,1924
2016-12-08T13:53:35.723Z,1904
2016-12-08T13:54:35.686Z,1892
2016-12-08T13:55:35.667Z,1892
2016-12-08T13:56:35.652Z,1876
2016-12-08T13:57:35.662Z,1864
2016-12-08T13:58:35.627Z,1848
2016-12-08T13:59:35.613Z,1844
2016-12-08T14:00:35.604Z,1824